sensor_id;sensor_type;location;lat;lon;timestamp;temperature;humidity
70151;DHT22;57517;43.562;19.540;2023-07-20T00:01:15;589.60;2278.40
70151;DHT22;57517;43.562;19.540;2023-07-20T00:03:41;614.50;2252.80
70151;DHT22;57517;43.562;19.540;2023-07-20T00:06:07;589.70;2304.00
70151;DHT22;57517;43.562;19.540;2023-07-20T00:08:33;589.50;2329.60
70151;DHT22;57517;43.562;19.540;2023-07-20T00:10:58;589.50;2329.60
70151;DHT22;57517;43.562;19.540;2023-07-20T00:13:24;589.50;2304.00
70151;DHT22;57517;43.562;19.540;2023-07-20T00:15:51;614.40;2252.80
70151;DHT22;57517;43.562;19.540;2023-07-20T00:18:17;614.60;2201.60
70151;DHT22;57517;43.562;19.540;2023-07-20T00:20:43;614.60;2201.60
70151;DHT22;57517;43.562;19.540;2023-07-20T00:23:09;614.50;2227.20
70151;DHT22;57517;43.562;19.540;2023-07-20T00:25:34;614.50;2176.00
70151;DHT22;57517;43.562;19.540;2023-07-20T00:28:01;589.50;2201.60
70151;DHT22;57517;43.562;19.540;2023-07-20T00:30:27;589.50;2201.60
70151;DHT22;57517;43.562;19.540;2023-07-20T00:32:52;589.50;2201.60
70151;DHT22;57517;43.562;19.540;2023-07-20T00:35:18;589.50;2227.20
70151;DHT22;57517;43.562;19.540;2023-07-20T00:37:44;589.50;2227.20
70151;DHT22;57517;43.562;19.540;2023-07-20T00:40:10;589.40;2252.80
70151;DHT22;57517;43.562;19.540;2023-07-20T00:42:36;589.50;2252.80
70151;DHT22;57517;43.562;19.540;2023-07-20T00:45:02;589.30;2304.00
70151;DHT22;57517;43.562;19.540;2023-07-20T00:47:28;589.50;2252.80
70151;DHT22;57517;43.562;19.540;2023-07-20T00:49:54;614.40;2201.60
70151;DHT22;57517;43.562;19.540;2023-07-20T00:52:21;614.40;2201.60
70151;DHT22;57517;43.562;19.540;2023-07-20T00:54:49;589.50;2252.80
70151;DHT22;57517;43.562;19.540;2023-07-20T00:57:15;589.50;2278.40
70151;DHT22;57517;43.562;19.540;2023-07-20T00:59:43;589.50;2227.20
70151;DHT22;57517;43.562;19.540;2023-07-20T01:02:09;589.20;2304.00
70151;DHT22;57517;43.562;19.540;2023-07-20T01:04:35;589.00;2355.20
70151;DHT22;57517;43.562;19.540;2023-07-20T01:07:17;589.30;2304.00
70151;DHT22;57517;43.562;19.540;2023-07-20T01:09:52;589.20;2304.00
70151;DHT22;57517;43.562;19.540;2023-07-20T01:12:41;589.10;2329.60
70151;DHT22;57517;43.562;19.540;2023-07-20T01:15:08;589.00;2329.60
70151;DHT22;57517;43.562;19.540;2023-07-20T01:17:34;589.10;2355.20
70151;DHT22;57517;43.562;19.540;2023-07-20T01:20:00;589.30;2304.00
70151;DHT22;57517;43.562;19.540;2023-07-20T01:33:46;589.00;2380.80
70151;DHT22;57517;43.562;19.540;2023-07-20T01:36:14;589.10;2380.80
70151;DHT22;57517;43.562;19.540;2023-07-20T01:38:42;589.30;2304.00
70151;DHT22;57517;43.562;19.540;2023-07-20T01:41:08;589.40;2304.00
70151;DHT22;57517;43.562;19.540;2023-07-20T01:43:34;589.50;2252.80
70151;DHT22;57517;43.562;19.540;2023-07-20T01:46:00;589.60;2252.80
70151;DHT22;57517;43.562;19.540;2023-07-20T01:48:26;589.50;2252.80
70151;DHT22;57517;43.562;19.540;2023-07-20T01:50:51;589.50;2252.80
70151;DHT22;57517;43.562;19.540;2023-07-20T01:53:17;589.50;2252.80
70151;DHT22;57517;43.562;19.540;2023-07-20T01:55:43;589.30;2227.20
70151;DHT22;57517;43.562;19.540;2023-07-20T01:58:09;589.10;2278.40
70151;DHT22;57517;43.562;19.540;2023-07-20T02:00:37;589.20;2278.40
70151;DHT22;57517;43.562;19.540;2023-07-20T02:03:02;589.30;2252.80
70151;DHT22;57517;43.562;19.540;2023-07-20T02:05:28;589.20;2278.40
70151;DHT22;57517;43.562;19.540;2023-07-20T02:07:54;589.20;2278.40
70151;DHT22;57517;43.562;19.540;2023-07-20T02:10:20;589.10;2304.00
70151;DHT22;57517;43.562;19.540;2023-07-20T02:12:46;588.80;2355.20
70151;DHT22;57517;43.562;19.540;2023-07-20T02:15:12;588.90;2380.80
70151;DHT22;57517;43.562;19.540;2023-07-20T02:17:39;588.90;2380.80
70151;DHT22;57517;43.562;19.540;2023-07-20T02:20:07;589.00;2355.20
70151;DHT22;57517;43.562;19.540;2023-07-20T02:22:37;589.00;2329.60
70151;DHT22;57517;43.562;19.540;2023-07-20T02:25:06;589.10;2329.60
70151;DHT22;57517;43.562;19.540;2023-07-20T02:27:35;588.80;2380.80
70151;DHT22;57517;43.562;19.540;2023-07-20T02:30:02;563.80;2432.00
70151;DHT22;57517;43.562;19.540;2023-07-20T02:32:29;564.00;2406.40
70151;DHT22;57517;43.562;19.540;2023-07-20T02:34:55;564.10;2380.80
70151;DHT22;57517;43.562;19.540;2023-07-20T02:37:20;588.80;2380.80
70151;DHT22;57517;43.562;19.540;2023-07-20T02:39:46;588.90;2355.20
70151;DHT22;57517;43.562;19.540;2023-07-20T02:42:12;589.00;2329.60
70151;DHT22;57517;43.562;19.540;2023-07-20T02:44:38;589.10;2329.60
70151;DHT22;57517;43.562;19.540;2023-07-20T02:47:04;589.10;2329.60
70151;DHT22;57517;43.562;19.540;2023-07-20T02:49:30;564.10;2432.00
70151;DHT22;57517;43.562;19.540;2023-07-20T02:51:56;564.10;2432.00
70151;DHT22;57517;43.562;19.540;2023-07-20T02:54:22;563.90;2432.00
70151;DHT22;57517;43.562;19.540;2023-07-20T02:56:48;563.60;2432.00
70151;DHT22;57517;43.562;19.540;2023-07-20T02:59:13;563.70;2432.00
70151;DHT22;57517;43.562;19.540;2023-07-20T03:01:39;563.70;2432.00
70151;DHT22;57517;43.562;19.540;2023-07-20T03:04:07;563.80;2432.00
70151;DHT22;57517;43.562;19.540;2023-07-20T03:06:36;563.70;2432.00
70151;DHT22;57517;43.562;19.540;2023-07-20T03:09:02;563.90;2432.00
70151;DHT22;57517;43.562;19.540;2023-07-20T03:11:29;564.10;2432.00
70151;DHT22;57517;43.562;19.540;2023-07-20T03:13:55;588.80;2432.00
70151;DHT22;57517;43.562;19.540;2023-07-20T03:16:23;588.90;2406.40
70151;DHT22;57517;43.562;19.540;2023-07-20T03:18:49;588.80;2432.00
70151;DHT22;57517;43.562;19.540;2023-07-20T03:21:14;564.00;2432.00
70151;DHT22;57517;43.562;19.540;2023-07-20T03:23:41;563.90;2432.00
70151;DHT22;57517;43.562;19.540;2023-07-20T03:26:07;563.70;2432.00
70151;DHT22;57517;43.562;19.540;2023-07-20T03:28:36;563.70;2432.00
70151;DHT22;57517;43.562;19.540;2023-07-20T03:31:02;563.90;2432.00
70151;DHT22;57517;43.562;19.540;2023-07-20T03:33:29;564.10;2432.00
70151;DHT22;57517;43.562;19.540;2023-07-20T03:35:55;563.90;2432.00
70151;DHT22;57517;43.562;19.540;2023-07-20T03:38:22;563.80;2432.00
70151;DHT22;57517;43.562;19.540;2023-07-20T03:40:58;563.80;2432.00
70151;DHT22;57517;43.562;19.540;2023-07-20T03:43:25;563.90;2432.00
70151;DHT22;57517;43.562;19.540;2023-07-20T03:45:52;563.90;2432.00
70151;DHT22;57517;43.562;19.540;2023-07-20T03:48:19;563.50;2432.00
70151;DHT22;57517;43.562;19.540;2023-07-20T03:50:46;563.40;2432.00
70151;DHT22;57517;43.562;19.540;2023-07-20T03:53:15;538.50;2406.40
70151;DHT22;57517;43.562;19.540;2023-07-20T03:55:42;538.30;2406.40
70151;DHT22;57517;43.562;19.540;2023-07-20T03:58:09;538.40;2406.40
70151;DHT22;57517;43.562;19.540;2023-07-20T04:00:35;563.20;2432.00
70151;DHT22;57517;43.562;19.540;2023-07-20T04:03:01;563.40;2432.00
70151;DHT22;57517;43.562;19.540;2023-07-20T04:05:27;563.80;2432.00
70151;DHT22;57517;43.562;19.540;2023-07-20T04:07:52;564.00;2432.00
70151;DHT22;57517;43.562;19.540;2023-07-20T04:10:19;563.80;2432.00
70151;DHT22;57517;43.562;19.540;2023-07-20T04:12:45;537.90;2406.40
70151;DHT22;57517;43.562;19.540;2023-07-20T04:15:13;512.70;2380.80
70151;DHT22;57517;43.562;19.540;2023-07-20T04:17:39;512.50;2380.80
70151;DHT22;57517;43.562;19.540;2023-07-20T04:20:07;512.70;2380.80
70151;DHT22;57517;43.562;19.540;2023-07-20T04:22:32;537.80;2406.40
70151;DHT22;57517;43.562;19.540;2023-07-20T04:24:58;538.30;2406.40
70151;DHT22;57517;43.562;19.540;2023-07-20T04:27:24;563.30;2432.00
70151;DHT22;57517;43.562;19.540;2023-07-20T04:29:50;563.60;2432.00
70151;DHT22;57517;43.562;19.540;2023-07-20T04:32:15;563.90;2432.00
70151;DHT22;57517;43.562;19.540;2023-07-20T04:34:42;563.70;2432.00
70151;DHT22;57517;43.562;19.540;2023-07-20T04:37:08;563.70;2432.00
70151;DHT22;57517;43.562;19.540;2023-07-20T04:39:34;563.60;2432.00
70151;DHT22;57517;43.562;19.540;2023-07-20T04:42:00;563.70;2432.00
70151;DHT22;57517;43.562;19.540;2023-07-20T04:44:25;564.00;2432.00
70151;DHT22;57517;43.562;19.540;2023-07-20T04:46:51;564.10;2432.00
70151;DHT22;57517;43.562;19.540;2023-07-20T04:49:17;588.90;2432.00
70151;DHT22;57517;43.562;19.540;2023-07-20T04:51:43;564.10;2432.00
70151;DHT22;57517;43.562;19.540;2023-07-20T04:54:09;588.90;2432.00
70151;DHT22;57517;43.562;19.540;2023-07-20T04:56:34;564.10;2432.00
70151;DHT22;57517;43.562;19.540;2023-07-20T04:59:00;564.00;2432.00
70151;DHT22;57517;43.562;19.540;2023-07-20T05:01:26;563.60;2432.00
70151;DHT22;57517;43.562;19.540;2023-07-20T05:03:53;563.40;2432.00
70151;DHT22;57517;43.562;19.540;2023-07-20T05:06:18;563.30;2432.00
70151;DHT22;57517;43.562;19.540;2023-07-20T05:08:45;563.20;2432.00
70151;DHT22;57517;43.562;19.540;2023-07-20T05:11:11;563.30;2432.00
70151;DHT22;57517;43.562;19.540;2023-07-20T05:13:37;563.30;2432.00
70151;DHT22;57517;43.562;19.540;2023-07-20T05:16:03;563.30;2432.00
70151;DHT22;57517;43.562;19.540;2023-07-20T05:18:29;563.50;2432.00
70151;DHT22;57517;43.562;19.540;2023-07-20T05:20:55;563.70;2432.00
70151;DHT22;57517;43.562;19.540;2023-07-20T05:23:21;563.90;2432.00
70151;DHT22;57517;43.562;19.540;2023-07-20T05:25:53;564.00;2432.00
70151;DHT22;57517;43.562;19.540;2023-07-20T05:28:19;563.50;2432.00
70151;DHT22;57517;43.562;19.540;2023-07-20T05:30:45;563.40;2432.00
70151;DHT22;57517;43.562;19.540;2023-07-20T05:33:10;563.60;2432.00
70151;DHT22;57517;43.562;19.540;2023-07-20T05:35:37;563.90;2432.00
70151;DHT22;57517;43.562;19.540;2023-07-20T05:38:03;563.80;2432.00
70151;DHT22;57517;43.562;19.540;2023-07-20T05:40:31;563.90;2432.00
70151;DHT22;57517;43.562;19.540;2023-07-20T05:42:56;564.10;2432.00
70151;DHT22;57517;43.562;19.540;2023-07-20T05:45:22;589.10;2432.00
70151;DHT22;57517;43.562;19.540;2023-07-20T05:47:48;589.20;2432.00
70151;DHT22;57517;43.562;19.540;2023-07-20T05:50:14;589.30;2432.00
70151;DHT22;57517;43.562;19.540;2023-07-20T05:52:40;589.30;2432.00
70151;DHT22;57517;43.562;19.540;2023-07-20T05:55:06;589.10;2432.00
70151;DHT22;57517;43.562;19.540;2023-07-20T05:57:32;589.10;2432.00
70151;DHT22;57517;43.562;19.540;2023-07-20T05:59:58;589.20;2432.00
70151;DHT22;57517;43.562;19.540;2023-07-20T06:02:24;589.10;2432.00
70151;DHT22;57517;43.562;19.540;2023-07-20T06:04:50;589.30;2432.00
70151;DHT22;57517;43.562;19.540;2023-07-20T06:07:16;589.40;2432.00
70151;DHT22;57517;43.562;19.540;2023-07-20T06:09:41;589.00;2432.00
70151;DHT22;57517;43.562;19.540;2023-07-20T06:12:08;588.80;2432.00
70151;DHT22;57517;43.562;19.540;2023-07-20T06:14:34;563.90;2432.00
70151;DHT22;57517;43.562;19.540;2023-07-20T06:17:00;563.50;2432.00
70151;DHT22;57517;43.562;19.540;2023-07-20T06:19:26;563.40;2432.00
70151;DHT22;57517;43.562;19.540;2023-07-20T06:21:52;563.50;2432.00
70151;DHT22;57517;43.562;19.540;2023-07-20T06:24:18;563.60;2432.00
70151;DHT22;57517;43.562;19.540;2023-07-20T06:26:44;563.90;2432.00
70151;DHT22;57517;43.562;19.540;2023-07-20T06:29:09;564.10;2432.00
70151;DHT22;57517;43.562;19.540;2023-07-20T06:31:36;589.10;2432.00
70151;DHT22;57517;43.562;19.540;2023-07-20T06:34:02;589.50;2432.00
70151;DHT22;57517;43.562;19.540;2023-07-20T06:36:28;614.50;2432.00
70151;DHT22;57517;43.562;19.540;2023-07-20T06:38:55;615.20;2432.00
70151;DHT22;57517;43.562;19.540;2023-07-20T06:41:21;665.70;2227.20
70151;DHT22;57517;43.562;19.540;2023-07-20T06:43:47;691.70;1945.60
70151;DHT22;57517;43.562;19.540;2023-07-20T06:46:13;717.20;1868.80
70151;DHT22;57517;43.562;19.540;2023-07-20T06:48:39;717.70;1664.00
70151;DHT22;57517;43.562;19.540;2023-07-20T06:51:05;768.00;1587.20
70151;DHT22;57517;43.562;19.540;2023-07-20T06:53:31;794.40;1433.60
70151;DHT22;57517;43.562;19.540;2023-07-20T06:55:57;845.20;1331.20
70151;DHT22;57517;43.562;19.540;2023-07-20T06:58:23;845.10;1331.20
70151;DHT22;57517;43.562;19.540;2023-07-20T07:00:49;844.80;1331.20
70151;DHT22;57517;43.562;19.540;2023-07-20T07:03:15;819.90;1331.20
70151;DHT22;57517;43.562;19.540;2023-07-20T07:05:41;820.00;1305.60
70151;DHT22;57517;43.562;19.540;2023-07-20T07:08:07;845.00;1305.60
70151;DHT22;57517;43.562;19.540;2023-07-20T07:10:35;820.00;1305.60
70151;DHT22;57517;43.562;19.540;2023-07-20T07:13:01;845.30;1280.00
70151;DHT22;57517;43.562;19.540;2023-07-20T07:15:27;845.20;1280.00
70151;DHT22;57517;43.562;19.540;2023-07-20T07:17:53;845.60;1280.00
70151;DHT22;57517;43.562;19.540;2023-07-20T07:20:19;845.10;1305.60
70151;DHT22;57517;43.562;19.540;2023-07-20T07:22:45;819.90;1280.00
70151;DHT22;57517;43.562;19.540;2023-07-20T07:25:12;819.90;1305.60
70151;DHT22;57517;43.562;19.540;2023-07-20T07:27:38;845.30;1254.40
70151;DHT22;57517;43.562;19.540;2023-07-20T07:30:04;845.70;1228.80
70151;DHT22;57517;43.562;19.540;2023-07-20T07:32:31;870.90;1203.20
70151;DHT22;57517;43.562;19.540;2023-07-20T07:34:57;845.70;1228.80
70151;DHT22;57517;43.562;19.540;2023-07-20T07:37:24;845.70;1228.80
70151;DHT22;57517;43.562;19.540;2023-07-20T07:39:50;870.70;1203.20
70151;DHT22;57517;43.562;19.540;2023-07-20T07:42:15;870.90;1203.20
70151;DHT22;57517;43.562;19.540;2023-07-20T07:44:41;896.70;1100.80
70151;DHT22;57517;43.562;19.540;2023-07-20T07:47:07;896.50;1100.80
70151;DHT22;57517;43.562;19.540;2023-07-20T07:49:33;870.70;1152.00
70151;DHT22;57517;43.562;19.540;2023-07-20T07:51:59;845.70;1203.20
70151;DHT22;57517;43.562;19.540;2023-07-20T07:54:28;870.90;1203.20
70151;DHT22;57517;43.562;19.540;2023-07-20T07:56:54;870.90;1177.60
70151;DHT22;57517;43.562;19.540;2023-07-20T07:59:20;871.10;1177.60
70151;DHT22;57517;43.562;19.540;2023-07-20T08:01:45;870.90;1177.60
70151;DHT22;57517;43.562;19.540;2023-07-20T08:04:11;845.60;1228.80
70151;DHT22;57517;43.562;19.540;2023-07-20T08:06:37;845.40;1228.80
70151;DHT22;57517;43.562;19.540;2023-07-20T08:09:03;845.50;1203.20
70151;DHT22;57517;43.562;19.540;2023-07-20T08:11:28;845.20;1228.80
70151;DHT22;57517;43.562;19.540;2023-07-20T08:13:56;819.80;1228.80
70151;DHT22;57517;43.562;19.540;2023-07-20T08:16:22;819.40;1280.00
70151;DHT22;57517;43.562;19.540;2023-07-20T08:18:48;819.30;1305.60
70151;DHT22;57517;43.562;19.540;2023-07-20T08:21:14;819.20;1305.60
70151;DHT22;57517;43.562;19.540;2023-07-20T08:23:40;794.00;1305.60
70151;DHT22;57517;43.562;19.540;2023-07-20T08:26:06;794.00;1305.60
70151;DHT22;57517;43.562;19.540;2023-07-20T08:28:31;794.00;1305.60
70151;DHT22;57517;43.562;19.540;2023-07-20T08:30:57;794.00;1305.60
70151;DHT22;57517;43.562;19.540;2023-07-20T08:33:23;793.80;1305.60
70151;DHT22;57517;43.562;19.540;2023-07-20T08:35:51;794.10;1280.00
70151;DHT22;57517;43.562;19.540;2023-07-20T08:38:16;794.20;1228.80
70151;DHT22;57517;43.562;19.540;2023-07-20T08:40:44;794.30;1228.80
70151;DHT22;57517;43.562;19.540;2023-07-20T08:43:11;794.10;1280.00
70151;DHT22;57517;43.562;19.540;2023-07-20T08:45:39;794.30;1305.60
70151;DHT22;57517;43.562;19.540;2023-07-20T08:48:07;794.00;1331.20
70151;DHT22;57517;43.562;19.540;2023-07-20T08:50:34;794.00;1356.80
70151;DHT22;57517;43.562;19.540;2023-07-20T08:53:01;794.00;1356.80
70151;DHT22;57517;43.562;19.540;2023-07-20T08:55:27;794.00;1356.80
70151;DHT22;57517;43.562;19.540;2023-07-20T08:58:00;793.70;1382.40
70151;DHT22;57517;43.562;19.540;2023-07-20T09:00:28;793.80;1382.40
70151;DHT22;57517;43.562;19.540;2023-07-20T09:02:55;793.60;1356.80
70151;DHT22;57517;43.562;19.540;2023-07-20T09:05:23;793.80;1356.80
70151;DHT22;57517;43.562;19.540;2023-07-20T09:07:51;768.90;1382.40
70151;DHT22;57517;43.562;19.540;2023-07-20T09:10:20;768.70;1408.00
70151;DHT22;57517;43.562;19.540;2023-07-20T09:12:46;768.80;1382.40
70151;DHT22;57517;43.562;19.540;2023-07-20T09:15:12;768.90;1382.40
70151;DHT22;57517;43.562;19.540;2023-07-20T09:17:38;793.70;1382.40
70151;DHT22;57517;43.562;19.540;2023-07-20T09:20:05;768.90;1356.80
70151;DHT22;57517;43.562;19.540;2023-07-20T09:22:34;793.70;1382.40
70151;DHT22;57517;43.562;19.540;2023-07-20T09:25:00;793.70;1408.00
70151;DHT22;57517;43.562;19.540;2023-07-20T09:27:36;793.60;1382.40
70151;DHT22;57517;43.562;19.540;2023-07-20T09:30:03;793.60;1382.40
70151;DHT22;57517;43.562;19.540;2023-07-20T09:32:29;768.90;1382.40
70151;DHT22;57517;43.562;19.540;2023-07-20T09:34:55;793.60;1408.00
70151;DHT22;57517;43.562;19.540;2023-07-20T09:37:22;794.00;1382.40
70151;DHT22;57517;43.562;19.540;2023-07-20T09:39:48;794.10;1382.40
70151;DHT22;57517;43.562;19.540;2023-07-20T09:42:16;793.80;1382.40
70151;DHT22;57517;43.562;19.540;2023-07-20T09:44:43;794.00;1382.40
70151;DHT22;57517;43.562;19.540;2023-07-20T09:47:10;794.20;1382.40
70151;DHT22;57517;43.562;19.540;2023-07-20T09:49:42;794.50;1356.80
70151;DHT22;57517;43.562;19.540;2023-07-20T09:52:11;794.20;1331.20
70151;DHT22;57517;43.562;19.540;2023-07-20T09:54:39;794.40;1331.20
70151;DHT22;57517;43.562;19.540;2023-07-20T09:57:09;794.50;1331.20
70151;DHT22;57517;43.562;19.540;2023-07-20T09:59:38;819.30;1331.20
70151;DHT22;57517;43.562;19.540;2023-07-20T10:02:12;819.20;1305.60
70151;DHT22;57517;43.562;19.540;2023-07-20T10:04:42;819.20;1305.60
70151;DHT22;57517;43.562;19.540;2023-07-20T10:07:10;819.20;1280.00
70151;DHT22;57517;43.562;19.540;2023-07-20T10:09:39;819.40;1254.40
70151;DHT22;57517;43.562;19.540;2023-07-20T10:12:08;819.50;1254.40
70151;DHT22;57517;43.562;19.540;2023-07-20T10:14:41;819.50;1254.40
70151;DHT22;57517;43.562;19.540;2023-07-20T10:17:08;819.40;1228.80
70151;DHT22;57517;43.562;19.540;2023-07-20T10:19:47;794.50;1280.00
70151;DHT22;57517;43.562;19.540;2023-07-20T10:22:17;819.20;1280.00
70151;DHT22;57517;43.562;19.540;2023-07-20T10:24:46;794.50;1254.40
70151;DHT22;57517;43.562;19.540;2023-07-20T10:27:13;794.50;1254.40
70151;DHT22;57517;43.562;19.540;2023-07-20T10:29:40;794.50;1228.80
70151;DHT22;57517;43.562;19.540;2023-07-20T10:32:08;819.20;1280.00
70151;DHT22;57517;43.562;19.540;2023-07-20T10:34:34;819.40;1280.00
70151;DHT22;57517;43.562;19.540;2023-07-20T10:37:00;819.50;1305.60
70151;DHT22;57517;43.562;19.540;2023-07-20T10:39:27;819.30;1305.60
70151;DHT22;57517;43.562;19.540;2023-07-20T10:42:22;819.30;1254.40
70151;DHT22;57517;43.562;19.540;2023-07-20T10:44:48;819.30;1203.20
70151;DHT22;57517;43.562;19.540;2023-07-20T10:47:14;794.50;1254.40
70151;DHT22;57517;43.562;19.540;2023-07-20T10:50:01;794.50;1203.20
70151;DHT22;57517;43.562;19.540;2023-07-20T10:52:40;794.50;1203.20
70151;DHT22;57517;43.562;19.540;2023-07-20T10:55:16;819.20;1177.60
70151;DHT22;57517;43.562;19.540;2023-07-20T10:57:42;819.20;1203.20
70151;DHT22;57517;43.562;19.540;2023-07-20T11:00:13;819.30;1203.20
70151;DHT22;57517;43.562;19.540;2023-07-20T11:02:49;794.50;1228.80
70151;DHT22;57517;43.562;19.540;2023-07-20T11:05:38;819.30;1228.80
70151;DHT22;57517;43.562;19.540;2023-07-20T11:08:06;819.40;1254.40
70151;DHT22;57517;43.562;19.540;2023-07-20T11:10:34;819.50;1254.40
70151;DHT22;57517;43.562;19.540;2023-07-20T11:13:20;819.50;1228.80
70151;DHT22;57517;43.562;19.540;2023-07-20T11:18:25;819.60;1177.60
70151;DHT22;57517;43.562;19.540;2023-07-20T11:20:53;819.60;1177.60
70151;DHT22;57517;43.562;19.540;2023-07-20T11:23:20;819.60;1152.00
70151;DHT22;57517;43.562;19.540;2023-07-20T11:25:46;819.50;1177.60
70151;DHT22;57517;43.562;19.540;2023-07-20T11:28:12;819.40;1203.20
70151;DHT22;57517;43.562;19.540;2023-07-20T11:30:38;819.40;1228.80
70151;DHT22;57517;43.562;19.540;2023-07-20T11:33:05;819.50;1203.20
70151;DHT22;57517;43.562;19.540;2023-07-20T11:35:35;819.50;1228.80
70151;DHT22;57517;43.562;19.540;2023-07-20T11:38:02;819.60;1203.20
70151;DHT22;57517;43.562;19.540;2023-07-20T11:40:28;819.60;1203.20
70151;DHT22;57517;43.562;19.540;2023-07-20T11:42:56;819.60;1203.20
70151;DHT22;57517;43.562;19.540;2023-07-20T11:45:22;819.60;1203.20
70151;DHT22;57517;43.562;19.540;2023-07-20T11:47:48;819.60;1203.20
70151;DHT22;57517;43.562;19.540;2023-07-20T11:50:13;819.70;1203.20
70151;DHT22;57517;43.562;19.540;2023-07-20T11:52:40;819.70;1203.20
70151;DHT22;57517;43.562;19.540;2023-07-20T11:55:07;819.90;1228.80
70151;DHT22;57517;43.562;19.540;2023-07-20T11:57:33;819.90;1228.80
70151;DHT22;57517;43.562;19.540;2023-07-20T12:00:03;819.90;1228.80
70151;DHT22;57517;43.562;19.540;2023-07-20T12:02:37;819.70;1254.40
70151;DHT22;57517;43.562;19.540;2023-07-20T12:05:05;819.70;1280.00
70151;DHT22;57517;43.562;19.540;2023-07-20T12:07:35;819.70;1254.40
70151;DHT22;57517;43.562;19.540;2023-07-20T12:10:12;819.70;1254.40
70151;DHT22;57517;43.562;19.540;2023-07-20T12:12:38;819.60;1254.40
70151;DHT22;57517;43.562;19.540;2023-07-20T12:17:48;819.60;1280.00
70151;DHT22;57517;43.562;19.540;2023-07-20T12:20:28;819.60;1305.60
70151;DHT22;57517;43.562;19.540;2023-07-20T12:22:57;819.70;1280.00
70151;DHT22;57517;43.562;19.540;2023-07-20T12:25:23;819.90;1254.40
70151;DHT22;57517;43.562;19.540;2023-07-20T12:28:00;820.00;1254.40
70151;DHT22;57517;43.562;19.540;2023-07-20T12:30:28;820.10;1228.80
70151;DHT22;57517;43.562;19.540;2023-07-20T12:32:54;820.10;1228.80
70151;DHT22;57517;43.562;19.540;2023-07-20T12:35:19;820.10;1228.80
70151;DHT22;57517;43.562;19.540;2023-07-20T12:37:45;820.10;1228.80
70151;DHT22;57517;43.562;19.540;2023-07-20T12:40:14;820.10;1228.80
70151;DHT22;57517;43.562;19.540;2023-07-20T12:42:41;820.10;1203.20
70151;DHT22;57517;43.562;19.540;2023-07-20T12:45:09;820.10;1203.20
70151;DHT22;57517;43.562;19.540;2023-07-20T12:47:37;820.10;1203.20
70151;DHT22;57517;43.562;19.540;2023-07-20T12:50:05;820.10;1203.20
70151;DHT22;57517;43.562;19.540;2023-07-20T12:52:35;820.10;1228.80
70151;DHT22;57517;43.562;19.540;2023-07-20T12:55:04;820.10;1228.80
70151;DHT22;57517;43.562;19.540;2023-07-20T12:57:30;820.10;1203.20
70151;DHT22;57517;43.562;19.540;2023-07-20T12:59:56;820.10;1203.20
70151;DHT22;57517;43.562;19.540;2023-07-20T13:02:22;820.10;1203.20
70151;DHT22;57517;43.562;19.540;2023-07-20T13:04:49;820.10;1203.20
70151;DHT22;57517;43.562;19.540;2023-07-20T13:07:16;820.10;1228.80
70151;DHT22;57517;43.562;19.540;2023-07-20T13:09:42;820.10;1228.80
70151;DHT22;57517;43.562;19.540;2023-07-20T13:12:08;844.80;1254.40
70151;DHT22;57517;43.562;19.540;2023-07-20T13:14:35;844.90;1254.40
70151;DHT22;57517;43.562;19.540;2023-07-20T13:17:01;845.00;1254.40
70151;DHT22;57517;43.562;19.540;2023-07-20T13:19:26;845.00;1254.40
70151;DHT22;57517;43.562;19.540;2023-07-20T13:21:52;845.00;1254.40
70151;DHT22;57517;43.562;19.540;2023-07-20T13:24:18;845.00;1228.80
70151;DHT22;57517;43.562;19.540;2023-07-20T13:26:44;845.00;1228.80
70151;DHT22;57517;43.562;19.540;2023-07-20T13:29:10;845.00;1228.80
70151;DHT22;57517;43.562;19.540;2023-07-20T13:31:35;845.00;1254.40
70151;DHT22;57517;43.562;19.540;2023-07-20T13:34:01;845.10;1254.40
70151;DHT22;57517;43.562;19.540;2023-07-20T13:36:27;845.10;1228.80
70151;DHT22;57517;43.562;19.540;2023-07-20T13:38:53;845.10;1280.00
70151;DHT22;57517;43.562;19.540;2023-07-20T13:41:19;845.00;1254.40
70151;DHT22;57517;43.562;19.540;2023-07-20T13:43:44;845.10;1254.40
70151;DHT22;57517;43.562;19.540;2023-07-20T13:46:11;845.10;1254.40
70151;DHT22;57517;43.562;19.540;2023-07-20T13:48:36;845.10;1254.40
70151;DHT22;57517;43.562;19.540;2023-07-20T13:51:02;845.10;1254.40
70151;DHT22;57517;43.562;19.540;2023-07-20T13:53:28;845.20;1254.40
70151;DHT22;57517;43.562;19.540;2023-07-20T13:55:54;845.10;1254.40
70151;DHT22;57517;43.562;19.540;2023-07-20T13:58:20;845.20;1280.00
70151;DHT22;57517;43.562;19.540;2023-07-20T14:00:45;845.10;1280.00
70151;DHT22;57517;43.562;19.540;2023-07-20T14:03:12;845.00;1280.00
70151;DHT22;57517;43.562;19.540;2023-07-20T14:05:37;845.20;1280.00
70151;DHT22;57517;43.562;19.540;2023-07-20T14:08:03;845.20;1305.60
70151;DHT22;57517;43.562;19.540;2023-07-20T14:10:29;845.10;1280.00
70151;DHT22;57517;43.562;19.540;2023-07-20T14:12:55;845.00;1280.00
70151;DHT22;57517;43.562;19.540;2023-07-20T14:15:20;845.10;1331.20
70151;DHT22;57517;43.562;19.540;2023-07-20T14:17:46;845.10;1305.60
70151;DHT22;57517;43.562;19.540;2023-07-20T14:20:12;845.10;1280.00
70151;DHT22;57517;43.562;19.540;2023-07-20T14:22:38;845.10;1305.60
70151;DHT22;57517;43.562;19.540;2023-07-20T14:25:04;845.20;1280.00
70151;DHT22;57517;43.562;19.540;2023-07-20T14:27:30;845.10;1280.00
70151;DHT22;57517;43.562;19.540;2023-07-20T14:29:55;845.10;1280.00
70151;DHT22;57517;43.562;19.540;2023-07-20T14:32:21;845.20;1254.40
70151;DHT22;57517;43.562;19.540;2023-07-20T14:34:47;845.10;1254.40
70151;DHT22;57517;43.562;19.540;2023-07-20T14:37:13;845.00;1254.40
70151;DHT22;57517;43.562;19.540;2023-07-20T14:39:39;845.10;1280.00
70151;DHT22;57517;43.562;19.540;2023-07-20T14:42:05;845.00;1254.40
70151;DHT22;57517;43.562;19.540;2023-07-20T14:44:32;845.00;1254.40
70151;DHT22;57517;43.562;19.540;2023-07-20T14:46:58;844.90;1280.00
70151;DHT22;57517;43.562;19.540;2023-07-20T14:49:26;844.90;1280.00
70151;DHT22;57517;43.562;19.540;2023-07-20T14:51:52;844.90;1280.00